Stena Suede — ZCEF5 — position and weather

sailwx.info

Track history (hours):
 
Tides and Currents Weather Stations Pressure Air Temp Water Temp Dewpoint Dewpoint Depression Visibility Wind Speed Wind Dir Waves Ship Positions

Stena Suede

Last reported at 2015-May-18 17:33 UTC. Time now 2015-May-22 08:34 UTC.
Position N 36°26' W 011°24'.

Length 274 m; draft 9.2 m.

Type: Tanker. MMSI: 310622000.

Date/timePositionNaut miles runAvg speedWind from/ knotsBaromVisibWave heightAir tempDewpointWater temp
2015-May-18 17:33N 36°26' W 011°24'1413.7
2015-May-18 16:33N 36°39' W 011°19'1913.4
2015-May-18 15:10N 36°57' W 011°11'1013.3
2015-May-18 14:25N 37°06' W 011°06'2713.0
2015-May-18 12:17N 37°33' W 010°60'1211.8
2015-May-18 11:18N 37°45' W 010°60'1211.3
2015-May-18 10:15N 37°56' W 011°00'811.0
2015-May-18 09:33N 38°04' W 011°00'1311.4
2015-May-18 08:26N 38°17' W 011°00'1011.6
2015-May-18 07:34N 38°27' W 011°00'1311.7
2015-May-18 06:26N 38°40' W 011°00'1112.5
2015-May-18 05:33N 38°51' W 011°00'  
2015-May-14 23:27N 50°29' W 000°01'1213.1
2015-May-14 22:33N 50°32' E 000°17'1212.4
2015-May-14 21:33N 50°35' E 000°36'1211.8
2015-May-14 20:33N 50°42' E 000°51'1110.9
2015-May-14 19:33N 50°48' E 001°05'1110.9
2015-May-14 18:33N 50°56' E 001°18'1212.5
2015-May-14 17:34N 51°04' E 001°32'1414.3
2015-May-14 16:33N 51°15' E 001°47'1414.1
2015-May-14 15:33N 51°27' E 001°58'1313.3
2015-May-14 14:33N 51°37' E 002°13'138 9.2
2015-May-13 23:30N 53°47' E 000°53'1212.8
2015-May-13 22:33N 53°42' E 000°34'9 9.0
2015-May-13 21:34N 53°37' E 000°21'1010.1
2015-May-13 20:33N 53°35' E 000°05'9 9.2
2015-May-13 19:34N 53°38' W 000°10'0 0.1
2015-May-13 18:31N 53°38' W 000°10'0 0.0
2015-May-13 17:31N 53°38' W 000°10'0 0.0
2015-May-13 16:31N 53°38' W 000°10'0 0.0
2015-May-13 15:31N 53°38' W 000°10'0 0.0
2015-May-13 14:31N 53°38' W 000°10'0 0.0
2015-May-13 13:31N 53°38' W 000°10'0 0.0
2015-May-13 12:31N 53°38' W 000°10'0 0.0
2015-May-13 11:31N 53°38' W 000°10'0 0.0
2015-May-13 10:31N 53°38' W 000°10'0 0.0
2015-May-13 09:31N 53°38' W 000°10'0 0.0
2015-May-13 08:31N 53°38' W 000°10'0 0.0
2015-May-13 07:31N 53°38' W 000°10'0 0.0
2015-May-13 06:31N 53°38' W 000°10'0 0.0
2015-May-13 05:31N 53°38' W 000°10'0 0.0
2015-May-13 04:31N 53°38' W 000°10'0 0.0
2015-May-13 03:31N 53°38' W 000°10'0 0.0
2015-May-13 02:31N 53°38' W 000°10'0 0.0
2015-May-13 01:31N 53°38' W 000°10'0 0.0
2015-May-13 00:31N 53°38' W 000°10'0 0.0
2015-May-12 23:31N 53°38' W 000°10'0 0.0
2015-May-12 22:31N 53°38' W 000°10'0 0.0
2015-May-12 21:31N 53°38' W 000°10'0 0.0
2015-May-12 20:31N 53°38' W 000°10'0 0.0
2015-May-12 19:31N 53°38' W 000°10'0 0.0
2015-May-12 18:31N 53°38' W 000°10'0 0.0
2015-May-12 17:31N 53°38' W 000°10'0 0.0
2015-May-12 16:31N 53°38' W 000°10'0 0.0
2015-May-12 15:31N 53°38' W 000°10'0 0.0
2015-May-12 14:31N 53°38' W 000°10'0 0.0
2015-May-12 13:31N 53°38' W 000°10'0 0.0
2015-May-12 12:33N 53°38' W 000°10'3 2.5
2015-May-12 11:33N 53°37' W 000°06'8 7.6
2015-May-12 10:34N 53°34' E 000°06'9 8.7
2015-May-12 09:34N 53°37' E 000°20'7 7.3
2015-May-12 08:33N 53°43' E 000°27'2 1.9
2015-May-12 07:34N 53°42' E 000°29'3 3.5
2015-May-12 06:34N 53°42' E 000°35'6 5.6
2015-May-12 05:33N 53°44' E 000°44'8 8.2
2015-May-12 04:33N 53°48' E 000°56'76 8.0
2015-May-11 19:09N 53°06' E 002°42'5310.7
2015-May-11 14:14N 52°14' E 002°45'1112.5
2015-May-11 13:22N 52°07' E 002°59'1112.1
2015-May-11 12:26N 52°03' E 003°16'1513.1
2015-May-11 11:19N 52°03' E 003°40'911.9
2015-May-11 10:34N 52°02' E 003°54'10 9.6
2015-May-11 09:34N 51°58' E 004°08'3 3.3
2015-May-11 08:33N 51°55' E 004°12'0 0.0
2015-May-11 07:24N 51°55' E 004°12'0 0.0
2015-May-11 06:33N 51°55' E 004°12'0 0.0
2015-May-11 05:18N 51°55' E 004°12'0 0.0
2015-May-11 04:27N 51°55' E 004°12'0 0.0
2015-May-11 03:15N 51°55' E 004°12'0 0.0
2015-May-11 02:33N 51°55' E 004°12'0 0.0
2015-May-11 01:33N 51°55' E 004°12'0 0.0
2015-May-11 00:27N 51°55' E 004°12'0 0.0
2015-May-10 23:30N 51°55' E 004°12'0 0.0
2015-May-10 22:24N 51°55' E 004°12'0 0.0
2015-May-10 21:27N 51°55' E 004°12'0 0.0
2015-May-10 20:33N 51°55' E 004°12'0 0.0
2015-May-10 19:30N 51°55' E 004°12'0 0.0
2015-May-10 18:33N 51°55' E 004°12'0 0.0
2015-May-10 17:18N 51°55' E 004°12'0 0.0
2015-May-10 16:18N 51°55' E 004°12'0 0.0
2015-May-10 15:33N 51°55' E 004°12'0 0.0
2015-May-10 14:30N 51°55' E 004°12'0 0.0
2015-May-10 13:33N 51°55' E 004°12'0 0.1
2015-May-10 12:33N 51°55' E 004°12'3 2.9
2015-May-10 11:33N 51°57' E 004°09'6 5.7
2015-May-10 10:33N 51°60' E 004°00'7 7.0
2015-May-10 09:33N 52°01' E 003°49'9 9.2
2015-May-10 08:33N 52°00' E 003°34'10 9.8
2015-May-10 07:32N 51°59' E 003°18'6 5.9
2015-May-10 06:32N 51°60' E 003°09'0 0.0
2015-May-10 05:23N 51°60' E 003°09'0 0.1
2015-May-10 04:14N 51°60' E 003°09'  
Track history (hours):
 
Tides and Currents Weather Stations Pressure Air Temp Water Temp Dewpoint Dewpoint Depression Visibility Wind Speed Wind Dir Waves Ship Positions

Stena Suede

Last reported at 2015-May-18 17:33 UTC. Time now 2015-May-22 08:34 UTC.
Position N 36°26' W 011°24'.

Length 274 m; draft 9.2 m.

Type: Tanker. MMSI: 310622000.

Date/timePositionNaut miles runAvg speedWind from/ knotsBaromVisibWave heightAir tempDewpointWater temp
2015-May-18 17:33N 36°26' W 011°24'1413.7
2015-May-18 16:33N 36°39' W 011°19'1913.4
2015-May-18 15:10N 36°57' W 011°11'1013.3
2015-May-18 14:25N 37°06' W 011°06'2713.0
2015-May-18 12:17N 37°33' W 010°60'1211.8
2015-May-18 11:18N 37°45' W 010°60'1211.3
2015-May-18 10:15N 37°56' W 011°00'811.0
2015-May-18 09:33N 38°04' W 011°00'1311.4
2015-May-18 08:26N 38°17' W 011°00'1011.6
2015-May-18 07:34N 38°27' W 011°00'1311.7
2015-May-18 06:26N 38°40' W 011°00'1112.5
2015-May-18 05:33N 38°51' W 011°00'  
2015-May-14 23:27N 50°29' W 000°01'1213.1
2015-May-14 22:33N 50°32' E 000°17'1212.4
2015-May-14 21:33N 50°35' E 000°36'1211.8
2015-May-14 20:33N 50°42' E 000°51'1110.9
2015-May-14 19:33N 50°48' E 001°05'1110.9
2015-May-14 18:33N 50°56' E 001°18'1212.5
2015-May-14 17:34N 51°04' E 001°32'1414.3
2015-May-14 16:33N 51°15' E 001°47'1414.1
2015-May-14 15:33N 51°27' E 001°58'1313.3
2015-May-14 14:33N 51°37' E 002°13'138 9.2
2015-May-13 23:30N 53°47' E 000°53'1212.8
2015-May-13 22:33N 53°42' E 000°34'9 9.0
2015-May-13 21:34N 53°37' E 000°21'1010.1
2015-May-13 20:33N 53°35' E 000°05'9 9.2
2015-May-13 19:34N 53°38' W 000°10'0 0.1
2015-May-13 18:31N 53°38' W 000°10'0 0.0
2015-May-13 17:31N 53°38' W 000°10'0 0.0
2015-May-13 16:31N 53°38' W 000°10'0 0.0
2015-May-13 15:31N 53°38' W 000°10'0 0.0
2015-May-13 14:31N 53°38' W 000°10'0 0.0
2015-May-13 13:31N 53°38' W 000°10'0 0.0
2015-May-13 12:31N 53°38' W 000°10'0 0.0
2015-May-13 11:31N 53°38' W 000°10'0 0.0
2015-May-13 10:31N 53°38' W 000°10'0 0.0
2015-May-13 09:31N 53°38' W 000°10'0 0.0
2015-May-13 08:31N 53°38' W 000°10'0 0.0
2015-May-13 07:31N 53°38' W 000°10'0 0.0
2015-May-13 06:31N 53°38' W 000°10'0 0.0
2015-May-13 05:31N 53°38' W 000°10'0 0.0
2015-May-13 04:31N 53°38' W 000°10'0 0.0
2015-May-13 03:31N 53°38' W 000°10'0 0.0
2015-May-13 02:31N 53°38' W 000°10'0 0.0
2015-May-13 01:31N 53°38' W 000°10'0 0.0
2015-May-13 00:31N 53°38' W 000°10'0 0.0
2015-May-12 23:31N 53°38' W 000°10'0 0.0
2015-May-12 22:31N 53°38' W 000°10'0 0.0
2015-May-12 21:31N 53°38' W 000°10'0 0.0
2015-May-12 20:31N 53°38' W 000°10'0 0.0
2015-May-12 19:31N 53°38' W 000°10'0 0.0
2015-May-12 18:31N 53°38' W 000°10'0 0.0
2015-May-12 17:31N 53°38' W 000°10'0 0.0
2015-May-12 16:31N 53°38' W 000°10'0 0.0
2015-May-12 15:31N 53°38' W 000°10'0 0.0
2015-May-12 14:31N 53°38' W 000°10'0 0.0
2015-May-12 13:31N 53°38' W 000°10'0 0.0
2015-May-12 12:33N 53°38' W 000°10'3 2.5
2015-May-12 11:33N 53°37' W 000°06'8 7.6
2015-May-12 10:34N 53°34' E 000°06'9 8.7
2015-May-12 09:34N 53°37' E 000°20'7 7.3
2015-May-12 08:33N 53°43' E 000°27'2 1.9
2015-May-12 07:34N 53°42' E 000°29'3 3.5
2015-May-12 06:34N 53°42' E 000°35'6 5.6
2015-May-12 05:33N 53°44' E 000°44'8 8.2
2015-May-12 04:33N 53°48' E 000°56'76 8.0
2015-May-11 19:09N 53°06' E 002°42'5310.7
2015-May-11 14:14N 52°14' E 002°45'1112.5
2015-May-11 13:22N 52°07' E 002°59'1112.1
2015-May-11 12:26N 52°03' E 003°16'1513.1
2015-May-11 11:19N 52°03' E 003°40'911.9
2015-May-11 10:34N 52°02' E 003°54'10 9.6
2015-May-11 09:34N 51°58' E 004°08'3 3.3
2015-May-11 08:33N 51°55' E 004°12'0 0.0
2015-May-11 07:24N 51°55' E 004°12'0 0.0
2015-May-11 06:33N 51°55' E 004°12'0 0.0
2015-May-11 05:18N 51°55' E 004°12'0 0.0
2015-May-11 04:27N 51°55' E 004°12'0 0.0
2015-May-11 03:15N 51°55' E 004°12'0 0.0
2015-May-11 02:33N 51°55' E 004°12'0 0.0
2015-May-11 01:33N 51°55' E 004°12'0 0.0
2015-May-11 00:27N 51°55' E 004°12'0 0.0
2015-May-10 23:30N 51°55' E 004°12'0 0.0
2015-May-10 22:24N 51°55' E 004°12'0 0.0
2015-May-10 21:27N 51°55' E 004°12'0 0.0
2015-May-10 20:33N 51°55' E 004°12'0 0.0
2015-May-10 19:30N 51°55' E 004°12'0 0.0
2015-May-10 18:33N 51°55' E 004°12'0 0.0
2015-May-10 17:18N 51°55' E 004°12'0 0.0
2015-May-10 16:18N 51°55' E 004°12'0 0.0
2015-May-10 15:33N 51°55' E 004°12'0 0.0
2015-May-10 14:30N 51°55' E 004°12'0 0.0
2015-May-10 13:33N 51°55' E 004°12'0 0.1
2015-May-10 12:33N 51°55' E 004°12'3 2.9
2015-May-10 11:33N 51°57' E 004°09'6 5.7
2015-May-10 10:33N 51°60' E 004°00'7 7.0
2015-May-10 09:33N 52°01' E 003°49'9 9.2
2015-May-10 08:33N 52°00' E 003°34'10 9.8
2015-May-10 07:32N 51°59' E 003°18'6 5.9
2015-May-10 06:32N 51°60' E 003°09'0 0.0
2015-May-10 05:23N 51°60' E 003°09'0 0.1
2015-May-10 04:14N 51°60' E 003°09'  

Dump ship's entire track history